Crew | Aerofun Virtual



 METAR AND TAF INFORMATION
METAR FOR EFKK
ADDS - METARS form results

(1937 UTC 21 July 2019)
Data provider http://aviationweather.gov/metar/data/
 
METAR text: EFKK 211920Z AUTO 02003KT CAVOK 20/12 Q1015
Conditions at: EFKK (KRUUNUPYY , FI) observed 1920 UTC 21 July 2019
Temperature: 20.0°C (68°F)
Dewpoint: 12.0°C (54°F) [RH = 60%]
Pressure (altimeter): 29.97 inches Hg (1015.0 mb)
Winds: from the NNE (20 degrees) at 3 MPH (3 knots; 1.5 m/s)
Visibility: 6 or more miles (10+ km)
Ceiling: ceiling and visibility are OK
Clouds: unknown
Weather: no significant weather observed at this time

METAR text: EFKK 211850Z AUTO 36005KT CAVOK 22/11 Q1015
Conditions at: EFKK (KRUUNUPYY , FI) observed 1850 UTC 21 July 2019
Temperature: 22.0°C (72°F)
Dewpoint: 11.0°C (52°F) [RH = 50%]
Pressure (altimeter): 29.97 inches Hg (1015.0 mb)
Winds: from the N (360 degrees) at 6 MPH (5 knots; 2.6 m/s)
Visibility: 6 or more miles (10+ km)
Ceiling: ceiling and visibility are OK
Clouds: unknown
Weather: no significant weather observed at this time

Forecast for: EFKK (KRUUNUPYY , FI)
Text: TAF EFKK 211725Z 2118/2123 36006KT CAVOK
Forecast period: 1800 to 2300 UTC 21 July 2019
Forecast type: FROM: standard forecast or significant change
Winds: from the N (360 degrees) at 7 MPH (6 knots; 3.1 m/s)
Visibility: 6 or more miles 10+ km)
Ceiling: unknown
Clouds: missing
Weather: NSW  (no significant weather)

 AIRPORT MAP

 RUNWAY INFORMATION
Runway 01 Runway length 8202 ft Runway width 197 ft
Runway elevation 78 ft Runway displaced threshold 0 ft Runway heading 11
Runway 19 Runway length 8202 ft Runway width 197 ft
Runway elevation 82 ft Runway displaced threshold 0 ft Runway heading 191
Runway 11 Runway length 2297 ft Runway width 66 ft
Runway elevation 0 ft Runway displaced threshold 0 ft Runway heading 112
Runway 29 Runway length 2297 ft Runway width 66 ft
Runway elevation 0 ft Runway displaced threshold 0 ft Runway heading 292

 AIRPORT FREQUENCIES
Type ATIS Name ATIS Frequency 125.025 MHZ
Type TWR Name TWR Frequency 120.1 MHZ

 AIRPORT NEAR NAVIGATION AIDS
Type NDB Name Esse Frequency 398 KHZ
Type NDB Name Kruunu Frequency 388 KHZ